CheckWX is a tool to help pilots better visualize weather data.  It is not intended as a substitute for an official pre-flight weather briefing.

04:47:49 UTC

KTPH METAR
Tonopah Airport
Tonopah, Nevada, USA
Current

52 mins ago

KTPH 180356Z AUTO 21008KT 10SM CLR 26/M06 A2997 RMK AO2 SLP056 T02611056
Observed
Aug-18 @ 03:56 UTC
Wind
  • 210° at 8 KTS
Visibility
10 SM
Flight Rules
VFR
Cloud Levels
  • Clear skies
Temperature
26°C / 79°F
Dewpoint
-6°C / 21°F
Humidity
12%
Altimeter
29.97" Hg
Pressure
1014.92 hPa
Previous

2 hours ago

KTPH 180256Z AUTO 19011KT 10SM CLR 29/M04 A2994 RMK AO2 SLP048 T02941044 55001
Observed
Aug-18 @ 02:56 UTC
Wind
  • 190° at 11 KTS
Visibility
10 SM
Flight Rules
VFR
Cloud Levels
  • Clear skies
Temperature
29°C / 84°F
Dewpoint
-4°C / 25°F
Humidity
11%
Altimeter
29.94" Hg
Pressure
1013.92 hPa
Previous

3 hours ago

KTPH 180156Z AUTO 19008KT 10SM CLR 32/M02 A2993 RMK AO2 SLP043 T03221022
Observed
Aug-18 @ 01:56 UTC
Wind
  • 190° at 8 KTS
Visibility
10 SM
Flight Rules
VFR
Cloud Levels
  • Clear skies
Temperature
32°C / 90°F
Dewpoint
-2°C / 28°F
Humidity
11%
Altimeter
29.93" Hg
Pressure
1013.52 hPa